RYR225 LEMH-LXGB
Flight info
| Callsign | RYR225 |
|---|---|
| Flight time | 1h 33m |
| Altitude | 39000 |
| Route | BAVER M603 GERVU DCT RESTU N851 MGA M985 PIMOS |
| Aircraft | B736/M-SDE2E3FGHIRWXY/LB1 |
Departure
| Time | 2026-05-05 02:27 |
|---|---|
| Airport | Menorca Airport (LEMH) |
Arrival
| Time | 2026-05-05 04:01 |
|---|---|
| Airport | Gibraltar Airport (LXGB) |
| Time | Latitude | Longitude | Altitude | Speed | Heading |
|---|---|---|---|---|---|
| 2026-05-05 02:03 | 39.86466 | 4.22410 | 302 ft | 0 kts | 99° |
| 2026-05-05 02:17 | 39.86468 | 4.22391 | 303 ft | 2 kts | 99° |
| 2026-05-05 02:17 | 39.86471 | 4.22369 | 301 ft | 2 kts | 98° |
| 2026-05-05 02:18 | 39.86473 | 4.22348 | 301 ft | 2 kts | 93° |
| 2026-05-05 02:18 | 39.86469 | 4.22328 | 300 ft | 2 kts | 42° |
| 2026-05-05 02:18 | 39.86455 | 4.22315 | 300 ft | 2 kts | 21° |
| 2026-05-05 02:18 | 39.86439 | 4.22311 | 300 ft | 2 kts | 6° |
| 2026-05-05 02:19 | 39.86432 | 4.22310 | 300 ft | 0 kts | 8° |
| 2026-05-05 02:21 | 39.86434 | 4.22310 | 300 ft | 1 kts | 8° |
| 2026-05-05 02:21 | 39.86457 | 4.22314 | 300 ft | 5 kts | 9° |
| 2026-05-05 02:21 | 39.86490 | 4.22321 | 301 ft | 5 kts | 9° |
| 2026-05-05 02:22 | 39.86521 | 4.22314 | 301 ft | 5 kts | 331° |
| 2026-05-05 02:22 | 39.86536 | 4.22278 | 302 ft | 5 kts | 282° |
| 2026-05-05 02:22 | 39.86542 | 4.22233 | 303 ft | 6 kts | 281° |
| 2026-05-05 02:22 | 39.86566 | 4.22183 | 304 ft | 7 kts | 332° |
| 2026-05-05 02:23 | 39.86615 | 4.22176 | 301 ft | 8 kts | 8° |
| 2026-05-05 02:23 | 39.86684 | 4.22189 | 302 ft | 12 kts | 9° |
| 2026-05-05 02:23 | 39.86784 | 4.22211 | 303 ft | 16 kts | 9° |
| 2026-05-05 02:23 | 39.86904 | 4.22236 | 304 ft | 18 kts | 8° |
| 2026-05-05 02:24 | 39.87030 | 4.22262 | 306 ft | 18 kts | 9° |
| 2026-05-05 02:24 | 39.87151 | 4.22287 | 307 ft | 17 kts | 9° |
| 2026-05-05 02:24 | 39.87268 | 4.22311 | 308 ft | 16 kts | 9° |
| 2026-05-05 02:24 | 39.87355 | 4.22328 | 309 ft | 12 kts | 4° |
| 2026-05-05 02:25 | 39.87390 | 4.22266 | 308 ft | 9 kts | 277° |
| 2026-05-05 02:25 | 39.87398 | 4.22187 | 309 ft | 9 kts | 265° |
| 2026-05-05 02:25 | 39.87366 | 4.22124 | 309 ft | 8 kts | 233° |
| 2026-05-05 02:25 | 39.87322 | 4.22085 | 309 ft | 2 kts | 192° |
| 2026-05-05 02:26 | 39.87321 | 4.22085 | 309 ft | 0 kts | 192° |
| 2026-05-05 02:26 | 39.87269 | 4.22072 | 309 ft | 33 kts | 188° |
| 2026-05-05 02:27 | 39.86813 | 4.21982 | 303 ft | 97 kts | 189° |
| 2026-05-05 02:27 | 39.85992 | 4.21804 | 388 ft | 133 kts | 192° |
| 2026-05-05 02:27 | 39.85056 | 4.21569 | 795 ft | 139 kts | 194° |
| 2026-05-05 02:27 | 39.84064 | 4.21375 | 1240 ft | 149 kts | 191° |
| 2026-05-05 02:28 | 39.83074 | 4.21239 | 1932 ft | 137 kts | 191° |
| 2026-05-05 02:28 | 39.82110 | 4.21087 | 2456 ft | 153 kts | 192° |
| 2026-05-05 02:28 | 39.80931 | 4.20904 | 2718 ft | 183 kts | 191° |
| 2026-05-05 02:28 | 39.79581 | 4.20679 | 2950 ft | 209 kts | 190° |
| 2026-05-05 02:29 | 39.78051 | 4.20409 | 3142 ft | 236 kts | 192° |
| 2026-05-05 02:29 | 39.76367 | 4.20091 | 3684 ft | 250 kts | 191° |
| 2026-05-05 02:29 | 39.74634 | 4.19765 | 4563 ft | 252 kts | 194° |
| 2026-05-05 02:29 | 39.73027 | 4.18877 | 5373 ft | 252 kts | 218° |
| 2026-05-05 02:30 | 39.71799 | 4.17256 | 6229 ft | 255 kts | 237° |
| 2026-05-05 02:30 | 39.71072 | 4.15144 | 7082 ft | 259 kts | 256° |
| 2026-05-05 02:30 | 39.70971 | 4.12807 | 8010 ft | 263 kts | 275° |
| 2026-05-05 02:30 | 39.71320 | 4.10456 | 8990 ft | 267 kts | 279° |
| 2026-05-05 02:31 | 39.71747 | 4.08094 | 10002 ft | 270 kts | 280° |
| 2026-05-05 02:31 | 39.71974 | 4.05676 | 10621 ft | 283 kts | 264° |
| 2026-05-05 02:31 | 39.71545 | 4.03064 | 10863 ft | 309 kts | 249° |
| 2026-05-05 02:31 | 39.70447 | 4.00611 | 11522 ft | 319 kts | 233° |
| 2026-05-05 02:32 | 39.69044 | 3.98355 | 12449 ft | 323 kts | 231° |
| 2026-05-05 02:32 | 39.67589 | 3.96123 | 13422 ft | 325 kts | 231° |
| 2026-05-05 02:32 | 39.66108 | 3.93872 | 14314 ft | 329 kts | 231° |
| 2026-05-05 02:32 | 39.64619 | 3.91602 | 15187 ft | 332 kts | 231° |
| 2026-05-05 02:33 | 39.63119 | 3.89304 | 16092 ft | 335 kts | 232° |
| 2026-05-05 02:33 | 39.61612 | 3.86986 | 16976 ft | 338 kts | 232° |
| 2026-05-05 02:33 | 39.60092 | 3.84642 | 17874 ft | 341 kts | 232° |
| 2026-05-05 02:33 | 39.58557 | 3.82272 | 18673 ft | 345 kts | 232° |
| 2026-05-05 02:34 | 39.57010 | 3.79881 | 19457 ft | 347 kts | 232° |
| 2026-05-05 02:34 | 39.55453 | 3.77476 | 20253 ft | 349 kts | 232° |
| 2026-05-05 02:34 | 39.53885 | 3.75055 | 21035 ft | 352 kts | 232° |
| 2026-05-05 02:34 | 39.52307 | 3.72619 | 21795 ft | 355 kts | 232° |
| 2026-05-05 02:35 | 39.50713 | 3.70161 | 22544 ft | 358 kts | 232° |
| 2026-05-05 02:35 | 39.49109 | 3.67689 | 23285 ft | 360 kts | 232° |
| 2026-05-05 02:35 | 39.47486 | 3.65191 | 23955 ft | 363 kts | 232° |
| 2026-05-05 02:35 | 39.45853 | 3.62677 | 24550 ft | 367 kts | 232° |
| 2026-05-05 02:36 | 39.44224 | 3.60173 | 25128 ft | 370 kts | 232° |
| 2026-05-05 02:36 | 39.42558 | 3.57613 | 25704 ft | 374 kts | 232° |
| 2026-05-05 02:36 | 39.40876 | 3.55030 | 26274 ft | 377 kts | 232° |
| 2026-05-05 02:36 | 39.39180 | 3.52429 | 26831 ft | 380 kts | 232° |
| 2026-05-05 02:37 | 39.37463 | 3.49798 | 27369 ft | 384 kts | 232° |
| 2026-05-05 02:37 | 39.35787 | 3.47104 | 27882 ft | 386 kts | 239° |
| 2026-05-05 02:37 | 39.34656 | 3.43966 | 28385 ft | 388 kts | 252° |
| 2026-05-05 02:37 | 39.34063 | 3.40554 | 28921 ft | 392 kts | 261° |
| 2026-05-05 02:38 | 39.34053 | 3.37014 | 29398 ft | 399 kts | 274° |
| 2026-05-05 02:38 | 39.34534 | 3.33456 | 29891 ft | 404 kts | 277° |
| 2026-05-05 02:38 | 39.35110 | 3.29885 | 30301 ft | 408 kts | 278° |
| 2026-05-05 02:38 | 39.35712 | 3.26293 | 30691 ft | 410 kts | 278° |
| 2026-05-05 02:39 | 39.36311 | 3.22686 | 31160 ft | 410 kts | 278° |
| 2026-05-05 02:39 | 39.36894 | 3.19088 | 31730 ft | 407 kts | 277° |
| 2026-05-05 02:39 | 39.37461 | 3.15513 | 32321 ft | 404 kts | 277° |
| 2026-05-05 02:39 | 39.38014 | 3.11963 | 32869 ft | 402 kts | 277° |
| 2026-05-05 02:40 | 39.38561 | 3.08422 | 33355 ft | 402 kts | 277° |
| 2026-05-05 02:40 | 39.39098 | 3.04919 | 33814 ft | 401 kts | 277° |
| 2026-05-05 02:40 | 39.39639 | 3.01379 | 34256 ft | 400 kts | 277° |
| 2026-05-05 02:40 | 39.40177 | 2.97859 | 34654 ft | 399 kts | 277° |
| 2026-05-05 02:41 | 39.40714 | 2.94337 | 35031 ft | 399 kts | 277° |
| 2026-05-05 02:41 | 39.41249 | 2.90826 | 35395 ft | 398 kts | 277° |
| 2026-05-05 02:41 | 39.41784 | 2.87312 | 35767 ft | 398 kts | 277° |
| 2026-05-05 02:41 | 39.42316 | 2.83805 | 36132 ft | 397 kts | 277° |
| 2026-05-05 02:42 | 39.42843 | 2.80305 | 36480 ft | 396 kts | 276° |
| 2026-05-05 02:42 | 39.42963 | 2.76778 | 36773 ft | 392 kts | 263° |
| 2026-05-05 02:42 | 39.42454 | 2.73339 | 37107 ft | 390 kts | 252° |
| 2026-05-05 02:42 | 39.41399 | 2.70112 | 37435 ft | 390 kts | 245° |
| 2026-05-05 02:43 | 39.40171 | 2.66981 | 37727 ft | 391 kts | 244° |
| 2026-05-05 02:43 | 39.38900 | 2.63867 | 38022 ft | 391 kts | 243° |
| 2026-05-05 02:43 | 39.37623 | 2.60760 | 38334 ft | 391 kts | 244° |
| 2026-05-05 02:43 | 39.36353 | 2.57651 | 38631 ft | 391 kts | 244° |
| 2026-05-05 02:44 | 39.35108 | 2.54580 | 38851 ft | 391 kts | 244° |
| 2026-05-05 02:44 | 39.32586 | 2.48297 | 38957 ft | 395 kts | 244° |
| 2026-05-05 02:45 | 39.30086 | 2.42047 | 38955 ft | 387 kts | 244° |
| 2026-05-05 02:45 | 39.27629 | 2.35904 | 38964 ft | 384 kts | 244° |
| 2026-05-05 02:46 | 39.25175 | 2.29776 | 38963 ft | 384 kts | 244° |
| 2026-05-05 02:46 | 39.22717 | 2.23651 | 38964 ft | 385 kts | 244° |
| 2026-05-05 02:47 | 39.20254 | 2.17529 | 38962 ft | 385 kts | 244° |
| 2026-05-05 02:47 | 39.17785 | 2.11402 | 38963 ft | 385 kts | 244° |
| 2026-05-05 02:48 | 39.15310 | 2.05276 | 38959 ft | 385 kts | 244° |
| 2026-05-05 02:48 | 39.12846 | 1.99185 | 38959 ft | 386 kts | 244° |
| 2026-05-05 02:49 | 39.10362 | 1.93060 | 38963 ft | 386 kts | 244° |
| 2026-05-05 02:49 | 39.07873 | 1.86934 | 38961 ft | 386 kts | 244° |
| 2026-05-05 02:50 | 39.05384 | 1.80820 | 38960 ft | 386 kts | 244° |
| 2026-05-05 02:50 | 39.02894 | 1.74715 | 38962 ft | 385 kts | 244° |
| 2026-05-05 02:51 | 39.00403 | 1.68620 | 38954 ft | 385 kts | 244° |
| 2026-05-05 02:51 | 38.97912 | 1.62537 | 38949 ft | 384 kts | 244° |
| 2026-05-05 02:52 | 38.95422 | 1.56465 | 38945 ft | 384 kts | 244° |
| 2026-05-05 02:52 | 38.93355 | 1.51436 | 38942 ft | 383 kts | 244° |
| 2026-05-05 02:53 | 38.91442 | 1.45126 | 38948 ft | 380 kts | 261° |
| 2026-05-05 02:53 | 38.91073 | 1.38369 | 38947 ft | 380 kts | 266° |
| 2026-05-05 02:54 | 38.90852 | 1.31596 | 38941 ft | 380 kts | 266° |
| 2026-05-05 02:54 | 38.90598 | 1.24828 | 38941 ft | 379 kts | 265° |
| 2026-05-05 02:55 | 38.90314 | 1.18066 | 38938 ft | 379 kts | 265° |
| 2026-05-05 02:55 | 38.90019 | 1.11304 | 38935 ft | 379 kts | 265° |
| 2026-05-05 02:56 | 38.89718 | 1.04551 | 38944 ft | 379 kts | 265° |
| 2026-05-05 02:56 | 38.89413 | 0.97800 | 38939 ft | 379 kts | 265° |
| 2026-05-05 02:57 | 38.89105 | 0.91053 | 38941 ft | 379 kts | 265° |
| 2026-05-05 02:57 | 38.88793 | 0.84305 | 38936 ft | 378 kts | 265° |
| 2026-05-05 02:58 | 38.88478 | 0.77565 | 38939 ft | 378 kts | 265° |
| 2026-05-05 02:58 | 38.88159 | 0.70822 | 38940 ft | 378 kts | 265° |
| 2026-05-05 02:59 | 38.87099 | 0.64266 | 38951 ft | 378 kts | 250° |
| 2026-05-05 02:59 | 38.85079 | 0.58038 | 38940 ft | 378 kts | 249° |
| 2026-05-05 03:00 | 38.83089 | 0.51792 | 38934 ft | 378 kts | 250° |
| 2026-05-05 03:00 | 38.80924 | 0.45685 | 38939 ft | 380 kts | 244° |
| 2026-05-05 03:01 | 38.78345 | 0.39765 | 38927 ft | 381 kts | 243° |
| 2026-05-05 03:01 | 38.75747 | 0.33852 | 38942 ft | 381 kts | 243° |
| 2026-05-05 03:02 | 38.73158 | 0.27933 | 38943 ft | 381 kts | 243° |
| 2026-05-05 03:02 | 38.70568 | 0.22001 | 38946 ft | 382 kts | 243° |
| 2026-05-05 03:03 | 38.67977 | 0.16070 | 38940 ft | 382 kts | 243° |
| 2026-05-05 03:03 | 38.65383 | 0.10140 | 38938 ft | 382 kts | 243° |
| 2026-05-05 03:04 | 38.62785 | 0.04213 | 38939 ft | 382 kts | 243° |
| 2026-05-05 03:04 | 38.60181 | -0.01717 | 38937 ft | 382 kts | 243° |
| 2026-05-05 03:05 | 38.57576 | -0.07638 | 38940 ft | 382 kts | 243° |
| 2026-05-05 03:05 | 38.54966 | -0.13558 | 38941 ft | 382 kts | 243° |
| 2026-05-05 03:06 | 38.52354 | -0.19474 | 38934 ft | 382 kts | 243° |
| 2026-05-05 03:06 | 38.49739 | -0.25385 | 38939 ft | 382 kts | 243° |
| 2026-05-05 03:07 | 38.47121 | -0.31291 | 38939 ft | 382 kts | 243° |
| 2026-05-05 03:07 | 38.44500 | -0.37194 | 38938 ft | 382 kts | 243° |
| 2026-05-05 03:08 | 38.41877 | -0.43090 | 38940 ft | 382 kts | 243° |
| 2026-05-05 03:08 | 38.39251 | -0.48982 | 38938 ft | 382 kts | 243° |
| 2026-05-05 03:09 | 38.36624 | -0.54864 | 38938 ft | 382 kts | 243° |
| 2026-05-05 03:09 | 38.33992 | -0.60748 | 38937 ft | 382 kts | 243° |
| 2026-05-05 03:10 | 38.31360 | -0.66621 | 38942 ft | 382 kts | 243° |
| 2026-05-05 03:10 | 38.28742 | -0.72452 | 38939 ft | 382 kts | 243° |
| 2026-05-05 03:11 | 38.26102 | -0.78320 | 38943 ft | 382 kts | 243° |
| 2026-05-05 03:11 | 38.23459 | -0.84184 | 38939 ft | 382 kts | 243° |
| 2026-05-05 03:12 | 38.20815 | -0.90042 | 38943 ft | 382 kts | 243° |
| 2026-05-05 03:12 | 38.18168 | -0.95895 | 38948 ft | 382 kts | 243° |
| 2026-05-05 03:13 | 38.15519 | -1.01740 | 38955 ft | 382 kts | 243° |
| 2026-05-05 03:13 | 38.12866 | -1.07586 | 38952 ft | 382 kts | 243° |
| 2026-05-05 03:14 | 38.10211 | -1.13424 | 38955 ft | 382 kts | 242° |
| 2026-05-05 03:14 | 38.07553 | -1.19259 | 38966 ft | 382 kts | 242° |
| 2026-05-05 03:15 | 38.04893 | -1.25087 | 38961 ft | 382 kts | 242° |
| 2026-05-05 03:15 | 38.02227 | -1.30917 | 38965 ft | 382 kts | 242° |
| 2026-05-05 03:16 | 37.99561 | -1.36738 | 38968 ft | 382 kts | 242° |
| 2026-05-05 03:16 | 37.96892 | -1.42555 | 38968 ft | 382 kts | 242° |
| 2026-05-05 03:17 | 37.94220 | -1.48371 | 38971 ft | 382 kts | 242° |
| 2026-05-05 03:17 | 37.91542 | -1.54186 | 38994 ft | 383 kts | 242° |
| 2026-05-05 03:18 | 37.89109 | -1.60168 | 38979 ft | 382 kts | 246° |
| 2026-05-05 03:18 | 37.86860 | -1.66266 | 38980 ft | 383 kts | 247° |
| 2026-05-05 03:19 | 37.83471 | -1.75414 | 38990 ft | 383 kts | 246° |
| 2026-05-05 03:19 | 37.81195 | -1.81501 | 38989 ft | 382 kts | 246° |
| 2026-05-05 03:20 | 37.78931 | -1.87534 | 38996 ft | 382 kts | 246° |
| 2026-05-05 03:20 | 37.76652 | -1.93592 | 38998 ft | 381 kts | 246° |
| 2026-05-05 03:21 | 37.74373 | -1.99640 | 39001 ft | 380 kts | 246° |
| 2026-05-05 03:21 | 37.72097 | -2.05667 | 39012 ft | 380 kts | 246° |
| 2026-05-05 03:22 | 37.69817 | -2.11694 | 39007 ft | 380 kts | 246° |
| 2026-05-05 03:22 | 37.67537 | -2.17709 | 39003 ft | 379 kts | 246° |
| 2026-05-05 03:23 | 37.65262 | -2.23700 | 39019 ft | 378 kts | 246° |
| 2026-05-05 03:23 | 37.62985 | -2.29686 | 39017 ft | 379 kts | 246° |
| 2026-05-05 03:24 | 37.60701 | -2.35676 | 39022 ft | 379 kts | 246° |
| 2026-05-05 03:24 | 37.58418 | -2.41656 | 39022 ft | 378 kts | 246° |
| 2026-05-05 03:25 | 37.56136 | -2.47627 | 39026 ft | 378 kts | 246° |
| 2026-05-05 03:25 | 37.53853 | -2.53587 | 39030 ft | 377 kts | 246° |
| 2026-05-05 03:26 | 37.51572 | -2.59532 | 39037 ft | 377 kts | 246° |
| 2026-05-05 03:26 | 37.49288 | -2.65475 | 39031 ft | 377 kts | 246° |
| 2026-05-05 03:27 | 37.47003 | -2.71410 | 39033 ft | 377 kts | 246° |
| 2026-05-05 03:27 | 37.44718 | -2.77333 | 39034 ft | 376 kts | 246° |
| 2026-05-05 03:28 | 37.42433 | -2.83246 | 39039 ft | 375 kts | 246° |
| 2026-05-05 03:28 | 37.40148 | -2.89145 | 39036 ft | 375 kts | 246° |
| 2026-05-05 03:29 | 37.37860 | -2.95048 | 39039 ft | 375 kts | 246° |
| 2026-05-05 03:29 | 37.35587 | -3.00905 | 39036 ft | 376 kts | 246° |
| 2026-05-05 03:30 | 37.33293 | -3.06808 | 39041 ft | 376 kts | 246° |
| 2026-05-05 03:30 | 37.30995 | -3.12707 | 39037 ft | 376 kts | 246° |
| 2026-05-05 03:31 | 37.28695 | -3.18604 | 39032 ft | 376 kts | 246° |
| 2026-05-05 03:31 | 37.26392 | -3.24498 | 39030 ft | 376 kts | 246° |
| 2026-05-05 03:32 | 37.24085 | -3.30380 | 39032 ft | 376 kts | 246° |
| 2026-05-05 03:32 | 37.22925 | -3.33323 | 38927 ft | 377 kts | 246° |
| 2026-05-05 03:32 | 37.21752 | -3.36297 | 38375 ft | 380 kts | 246° |
| 2026-05-05 03:33 | 37.20581 | -3.39261 | 37729 ft | 377 kts | 246° |
| 2026-05-05 03:33 | 37.19420 | -3.42197 | 37049 ft | 375 kts | 246° |
| 2026-05-05 03:33 | 37.18267 | -3.45113 | 36382 ft | 373 kts | 246° |
| 2026-05-05 03:33 | 37.17114 | -3.48027 | 35800 ft | 370 kts | 246° |
| 2026-05-05 03:34 | 37.15977 | -3.50901 | 35280 ft | 366 kts | 246° |
| 2026-05-05 03:34 | 37.14851 | -3.53743 | 34778 ft | 362 kts | 246° |
| 2026-05-05 03:34 | 37.13736 | -3.56556 | 34282 ft | 358 kts | 246° |
| 2026-05-05 03:34 | 37.12632 | -3.59336 | 33768 ft | 355 kts | 246° |
| 2026-05-05 03:35 | 37.11538 | -3.62090 | 33259 ft | 351 kts | 245° |
| 2026-05-05 03:35 | 37.10457 | -3.64806 | 32802 ft | 346 kts | 245° |
| 2026-05-05 03:35 | 37.09393 | -3.67474 | 32368 ft | 341 kts | 245° |
| 2026-05-05 03:35 | 37.08351 | -3.70085 | 31914 ft | 338 kts | 245° |
| 2026-05-05 03:36 | 37.07306 | -3.72704 | 31453 ft | 335 kts | 245° |
| 2026-05-05 03:36 | 37.06267 | -3.75307 | 31001 ft | 333 kts | 245° |
| 2026-05-05 03:36 | 37.05235 | -3.77890 | 30555 ft | 330 kts | 245° |
| 2026-05-05 03:36 | 37.04210 | -3.80454 | 30111 ft | 329 kts | 245° |
| 2026-05-05 03:37 | 37.03190 | -3.83004 | 29597 ft | 327 kts | 245° |
| 2026-05-05 03:37 | 37.02178 | -3.85532 | 29136 ft | 323 kts | 245° |
| 2026-05-05 03:37 | 37.01175 | -3.88033 | 28686 ft | 320 kts | 245° |
| 2026-05-05 03:37 | 37.00182 | -3.90510 | 28214 ft | 318 kts | 245° |
| 2026-05-05 03:38 | 36.99196 | -3.92967 | 27776 ft | 314 kts | 245° |
| 2026-05-05 03:38 | 36.98216 | -3.95407 | 27335 ft | 314 kts | 245° |
| 2026-05-05 03:38 | 36.97236 | -3.97848 | 26894 ft | 315 kts | 245° |
| 2026-05-05 03:38 | 36.96245 | -4.00311 | 26461 ft | 320 kts | 245° |
| 2026-05-05 03:39 | 36.95232 | -4.02831 | 26026 ft | 328 kts | 245° |
| 2026-05-05 03:39 | 36.94201 | -4.05392 | 25561 ft | 330 kts | 244° |
| 2026-05-05 03:39 | 36.93175 | -4.07935 | 25114 ft | 326 kts | 244° |
| 2026-05-05 03:39 | 36.92157 | -4.10456 | 24680 ft | 323 kts | 244° |
| 2026-05-05 03:40 | 36.91149 | -4.12953 | 24234 ft | 321 kts | 244° |
| 2026-05-05 03:40 | 36.90145 | -4.15436 | 23807 ft | 319 kts | 244° |
| 2026-05-05 03:40 | 36.89144 | -4.17910 | 23323 ft | 318 kts | 244° |
| 2026-05-05 03:40 | 36.88150 | -4.20366 | 22841 ft | 316 kts | 244° |
| 2026-05-05 03:41 | 36.87164 | -4.22802 | 22405 ft | 312 kts | 244° |
| 2026-05-05 03:41 | 36.86189 | -4.25206 | 21977 ft | 309 kts | 244° |
| 2026-05-05 03:41 | 36.85548 | -4.26789 | 21699 ft | 307 kts | 244° |
| 2026-05-05 03:41 | 36.84587 | -4.29157 | 21279 ft | 305 kts | 244° |
| 2026-05-05 03:42 | 36.83631 | -4.31509 | 20857 ft | 302 kts | 244° |
| 2026-05-05 03:42 | 36.82681 | -4.33837 | 20468 ft | 300 kts | 243° |
| 2026-05-05 03:42 | 36.81505 | -4.35972 | 20062 ft | 300 kts | 232° |
| 2026-05-05 03:42 | 36.80072 | -4.37865 | 19655 ft | 299 kts | 225° |
| 2026-05-05 03:43 | 36.78417 | -4.39442 | 19280 ft | 301 kts | 218° |
| 2026-05-05 03:43 | 36.76660 | -4.40864 | 18879 ft | 301 kts | 217° |
| 2026-05-05 03:43 | 36.74889 | -4.42253 | 18480 ft | 301 kts | 216° |
| 2026-05-05 03:43 | 36.73114 | -4.43638 | 18021 ft | 301 kts | 216° |
| 2026-05-05 03:44 | 36.71346 | -4.45020 | 17588 ft | 299 kts | 216° |
| 2026-05-05 03:44 | 36.69592 | -4.46396 | 17169 ft | 297 kts | 216° |
| 2026-05-05 03:44 | 36.67848 | -4.47768 | 16771 ft | 295 kts | 216° |
| 2026-05-05 03:44 | 36.66117 | -4.49133 | 16369 ft | 293 kts | 217° |
| 2026-05-05 03:45 | 36.64396 | -4.50491 | 15980 ft | 292 kts | 217° |
| 2026-05-05 03:45 | 36.62687 | -4.51841 | 15584 ft | 290 kts | 217° |
| 2026-05-05 03:45 | 36.60988 | -4.53184 | 15201 ft | 289 kts | 217° |
| 2026-05-05 03:45 | 36.59290 | -4.54525 | 14806 ft | 288 kts | 217° |
| 2026-05-05 03:46 | 36.57599 | -4.55861 | 14427 ft | 288 kts | 217° |
| 2026-05-05 03:46 | 36.55911 | -4.57194 | 14038 ft | 287 kts | 217° |
| 2026-05-05 03:46 | 36.54228 | -4.58522 | 13632 ft | 287 kts | 217° |
| 2026-05-05 03:46 | 36.52543 | -4.59852 | 13215 ft | 286 kts | 216° |
| 2026-05-05 03:47 | 36.50867 | -4.61175 | 12800 ft | 285 kts | 216° |
| 2026-05-05 03:47 | 36.49197 | -4.62492 | 12403 ft | 284 kts | 216° |
| 2026-05-05 03:47 | 36.47536 | -4.63799 | 12016 ft | 282 kts | 216° |
| 2026-05-05 03:47 | 36.45881 | -4.65102 | 11632 ft | 281 kts | 216° |
| 2026-05-05 03:48 | 36.44231 | -4.66400 | 11253 ft | 280 kts | 216° |
| 2026-05-05 03:48 | 36.42587 | -4.67693 | 10872 ft | 279 kts | 216° |
| 2026-05-05 03:48 | 36.40946 | -4.68983 | 10492 ft | 279 kts | 216° |
| 2026-05-05 03:48 | 36.39315 | -4.70264 | 10246 ft | 273 kts | 216° |
| 2026-05-05 03:49 | 36.37732 | -4.71505 | 10100 ft | 265 kts | 216° |
| 2026-05-05 03:49 | 36.36197 | -4.72708 | 9899 ft | 259 kts | 216° |
| 2026-05-05 03:49 | 36.34679 | -4.73900 | 9567 ft | 258 kts | 216° |
| 2026-05-05 03:49 | 36.33167 | -4.75087 | 9245 ft | 256 kts | 216° |
| 2026-05-05 03:50 | 36.31665 | -4.76266 | 8939 ft | 255 kts | 216° |
| 2026-05-05 03:50 | 36.30169 | -4.77439 | 8623 ft | 254 kts | 216° |
| 2026-05-05 03:50 | 36.28679 | -4.78607 | 8313 ft | 253 kts | 216° |
| 2026-05-05 03:50 | 36.27213 | -4.79755 | 8010 ft | 252 kts | 216° |
| 2026-05-05 03:51 | 36.25733 | -4.80913 | 7701 ft | 251 kts | 215° |
| 2026-05-05 03:51 | 36.24256 | -4.82069 | 7448 ft | 249 kts | 215° |
| 2026-05-05 03:51 | 36.22825 | -4.83187 | 7364 ft | 238 kts | 215° |
| 2026-05-05 03:51 | 36.21451 | -4.84260 | 7013 ft | 231 kts | 215° |
| 2026-05-05 03:52 | 36.20090 | -4.85324 | 6453 ft | 232 kts | 215° |
| 2026-05-05 03:52 | 36.18726 | -4.86390 | 5913 ft | 231 kts | 215° |
| 2026-05-05 03:52 | 36.17366 | -4.87451 | 5339 ft | 231 kts | 215° |
| 2026-05-05 03:52 | 36.16040 | -4.88532 | 4951 ft | 223 kts | 223° |
| 2026-05-05 03:53 | 36.15210 | -4.90094 | 4471 ft | 219 kts | 257° |
| 2026-05-05 03:53 | 36.15051 | -4.91942 | 4125 ft | 215 kts | 269° |
| 2026-05-05 03:53 | 36.15043 | -4.93785 | 3732 ft | 214 kts | 273° |
| 2026-05-05 03:53 | 36.15102 | -4.95603 | 3399 ft | 210 kts | 274° |
| 2026-05-05 03:54 | 36.15165 | -4.97410 | 3053 ft | 208 kts | 274° |
| 2026-05-05 03:54 | 36.15225 | -4.99216 | 3038 ft | 214 kts | 274° |
| 2026-05-05 03:54 | 36.15288 | -5.01055 | 2984 ft | 213 kts | 274° |
| 2026-05-05 03:54 | 36.15347 | -5.02873 | 2985 ft | 210 kts | 274° |
| 2026-05-05 03:55 | 36.15404 | -5.04658 | 2981 ft | 204 kts | 274° |
| 2026-05-05 03:55 | 36.15460 | -5.06389 | 3002 ft | 199 kts | 274° |
| 2026-05-05 03:55 | 36.15510 | -5.08047 | 2981 ft | 188 kts | 274° |
| 2026-05-05 03:55 | 36.15552 | -5.09659 | 2881 ft | 188 kts | 274° |
| 2026-05-05 03:56 | 36.15591 | -5.11265 | 2741 ft | 186 kts | 274° |
| 2026-05-05 03:56 | 36.15609 | -5.12847 | 2616 ft | 183 kts | 272° |
| 2026-05-05 03:56 | 36.15605 | -5.14430 | 2500 ft | 185 kts | 272° |
| 2026-05-05 03:56 | 36.15599 | -5.15973 | 2380 ft | 178 kts | 272° |
| 2026-05-05 03:57 | 36.15593 | -5.17481 | 2265 ft | 176 kts | 272° |
| 2026-05-05 03:57 | 36.15544 | -5.19018 | 2150 ft | 180 kts | 270° |
| 2026-05-05 03:57 | 36.15491 | -5.20526 | 2003 ft | 170 kts | 270° |
| 2026-05-05 03:57 | 36.15438 | -5.21936 | 1856 ft | 160 kts | 270° |
| 2026-05-05 03:58 | 36.15377 | -5.23304 | 1747 ft | 153 kts | 270° |
| 2026-05-05 03:58 | 36.15313 | -5.24533 | 1589 ft | 136 kts | 270° |
| 2026-05-05 03:58 | 36.15257 | -5.25637 | 1379 ft | 122 kts | 273° |
| 2026-05-05 03:58 | 36.15251 | -5.26669 | 1236 ft | 118 kts | 276° |
| 2026-05-05 03:59 | 36.15292 | -5.27669 | 1137 ft | 116 kts | 275° |
| 2026-05-05 03:59 | 36.15327 | -5.28666 | 954 ft | 115 kts | 270° |
| 2026-05-05 03:59 | 36.15301 | -5.29657 | 916 ft | 116 kts | 268° |
| 2026-05-05 03:59 | 36.15249 | -5.30656 | 777 ft | 117 kts | 270° |
| 2026-05-05 04:00 | 36.15236 | -5.31680 | 519 ft | 121 kts | 266° |
| 2026-05-05 04:00 | 36.15200 | -5.32713 | 284 ft | 118 kts | 264° |
| 2026-05-05 04:00 | 36.15162 | -5.33692 | 113 ft | 110 kts | 267° |
| 2026-05-05 04:00 | 36.15134 | -5.34600 | 20 ft | 97 kts | 266° |
| 2026-05-05 04:01 | 36.15114 | -5.35184 | 21 ft | 38 kts | 268° |
| 2026-05-05 04:01 | 36.15124 | -5.35359 | 20 ft | 15 kts | 289° |
| 2026-05-05 04:01 | 36.15129 | -5.35419 | 20 ft | 2 kts | 190° |
| 2026-05-05 04:01 | 36.15115 | -5.35368 | 21 ft | 11 kts | 86° |
| 2026-05-05 04:02 | 36.15116 | -5.35255 | 24 ft | 16 kts | 89° |
| 2026-05-05 04:02 | 36.15118 | -5.35100 | 21 ft | 20 kts | 86° |
| 2026-05-05 04:02 | 36.15122 | -5.34919 | 20 ft | 21 kts | 87° |
| 2026-05-05 04:02 | 36.15130 | -5.34746 | 19 ft | 19 kts | 87° |
| 2026-05-05 04:03 | 36.15203 | -5.34677 | 19 ft | 11 kts | 1° |
| 2026-05-05 04:03 | 36.15233 | -5.34623 | 17 ft | 8 kts | 91° |
| 2026-05-05 04:03 | 36.15236 | -5.34560 | 16 ft | 7 kts | 81° |
| 2026-05-05 04:03 | 36.15268 | -5.34524 | 16 ft | 7 kts | 4° |
| 2026-05-05 04:04 | 36.15317 | -5.34526 | 16 ft | 3 kts | 358° |
| 2026-05-05 04:04 | 36.15328 | -5.34526 | 16 ft | 0 kts | 357° |